Archival Weather

Republic

Farmingdale, New York (KFRG)

Report from: Monday, February 12, 2024 3:53 PM EST
Current time: Friday, June 14, 2024 7:54 AM EDT

Current weather – Weather history – Daily summaries
Weather forecast

Temperature6.1°C (43.0°F)
Wind chill4.1°C (39.5°F)
Dew point0.0°C (32.0°F)
Winds 5 kts (2.6 m/s, 5.8 mph) South-Southwest (200°)
Visibility10 mi. (16.1 km)
Clouds Sky clear
Altimeter29.84 in.Hg (1010 mB)
Relative humidity65 %
Density altitude-890 ft. (-271 m)
Sea-level pressure101.1 kPa (1011 mB, 29.84 in.Hg)
Remarks Automated weather observing station without precipitation discriminator
Pressure falling more slowly
Flight conditions Visual Meteorological Conditions
Raw dataKFRG 122053Z 20005KT 10SM CLR 06/00 A2984 RMK AO1 SLP106 T00610000 56009
An error has occurred. This application may no longer respond until reloaded. Reload 🗙